CT1AKV-10 Estrada Real PT current weather conditions

sailwx.info

Wind from 325 at 0 knots gusting 5

Air temperature 34.4° C
Dewpoint -1.6° C

Last reported at 2014-Jul-30 12:15 UTC.
Time now 2014-Jul-30 13:08 UTC

Location: N 39°11' W 008°44'.
View on Google Maps.

See reports from other nearby stations

  
Tides and Currents Weather Stations Pressure Air Temp Water Temp Dewpoint Dewpoint Depression Visibility Wind Speed Wind Dir Waves Ship Positions
date/time (UTC)wind fromknots sea level pressurealtimeterstation pressurevisibilityair tempwater tempwave heightnotes
2014-Jul-30 12:15 325 0 gusting 5 34.4
2014-Jul-30 12:00 204 0 gusting 4 34.4
2014-Jul-30 11:45 240 0 gusting 3 34.4
2014-Jul-30 11:30 219 0 gusting 4 33.9
2014-Jul-30 11:15 129 0 gusting 6 32.8
2014-Jul-30 11:00 170 0 gusting 6 32.2
2014-Jul-30 10:45 115 0 gusting 4 31.7
2014-Jul-30 10:30 105 31.1
2014-Jul-29 21:45 286 0 gusting 5 22.8
2014-Jul-29 21:15 314 1 gusting 5 23.3
2014-Jul-29 21:00 302 1 gusting 6 23.3
2014-Jul-29 20:30 282 2 gusting 6 24.4
2014-Jul-29 20:15 286 3 gusting 6 25.0
2014-Jul-29 20:00 295 2 gusting 7 25.6
2014-Jul-29 19:45 279 2 gusting 6 26.7
2014-Jul-29 19:30 284 3 gusting 7 27.2
2014-Jul-29 19:15 328 3 gusting 11 28.3
2014-Jul-29 19:00 303 4 gusting 9 30.0
2014-Jul-29 18:45 306 3 gusting 9 31.1
2014-Jul-29 18:30 319 5 gusting 10 31.1
2014-Jul-29 18:15 297 5 gusting 13 31.7
2014-Jul-29 18:00 303 5 gusting 13 32.2
2014-Jul-29 17:45 328 4 gusting 10 32.8
2014-Jul-29 17:30 324 4 gusting 11 33.3
2014-Jul-29 17:15 305 5 gusting 13 33.3
2014-Jul-29 17:00 309 4 gusting 11 33.9
2014-Jul-29 16:45 319 4 gusting 13 34.4
2014-Jul-29 16:15 311 4 gusting 9 35.6
2014-Jul-29 16:00 317 4 gusting 9 35.6
2014-Jul-29 15:45 297 4 gusting 9 36.1
2014-Jul-29 15:30 282 3 gusting 11 37.2
2014-Jul-29 15:15 324 0 gusting 3 39.4
2014-Jul-29 15:00 010 1 gusting 4 38.3
2014-Jul-29 14:45 041 1 gusting 6 37.8
2014-Jul-29 14:30 123 0 gusting 4 37.2
2014-Jul-29 14:15 066 1 gusting 6 37.2
2014-Jul-29 14:00 016 1 gusting 6 36.7
2014-Jul-29 13:30 077 0 gusting 6 36.1
2014-Jul-29 13:15 077 0 gusting 4 35.6
2014-Jul-29 13:00 021 1 gusting 4 35.6
2014-Jul-29 12:45 005 1 gusting 5 35.0
2014-Jul-29 12:30 035 1 gusting 5 33.9
2014-Jul-29 12:15 020 0 gusting 6 33.3
2014-Jul-29 12:00 085 0 gusting 6 33.3
2014-Jul-29 11:45 027 1 gusting 6 32.8
2014-Jul-29 11:30 023 2 gusting 6 31.7
2014-Jul-29 11:15 046 0 gusting 6 31.7
2014-Jul-29 11:00 046 0 gusting 3 30.6
2014-Jul-29 10:45 060 0 gusting 5 29.4
2014-Jul-29 10:30 043 0 gusting 4 28.3
2014-Jul-29 10:00 021 0 gusting 4 26.7
2014-Jul-29 09:45 081 0 gusting 4 25.6
2014-Jul-29 09:30 027 0 gusting 4 25.0
2014-Jul-29 09:15 035 0 gusting 3 25.0
2014-Jul-29 09:00 003 0 gusting 2 23.9
2014-Jul-28 22:00 298 5 gusting 12 30.0
2014-Jul-28 21:45 298 5 gusting 12 30.0
2014-Jul-28 21:30 298 5 gusting 12 30.0
2014-Jul-28 21:15 298 5 gusting 12 30.0
2014-Jul-28 21:00 298 5 gusting 12 30.0
2014-Jul-28 20:45 298 5 gusting 12 30.0
2014-Jul-28 20:30 298 5 gusting 12 30.0
2014-Jul-28 20:15 298 5 gusting 12 30.0
2014-Jul-28 20:00 298 5 gusting 12 30.0
2014-Jul-28 19:45 298 5 gusting 12 30.0
2014-Jul-28 19:30 298 5 gusting 12 30.0
2014-Jul-28 19:15 298 5 gusting 12 30.0
2014-Jul-28 19:00 298 5 gusting 12 30.0
2014-Jul-28 18:45 298 5 gusting 12 30.0
2014-Jul-28 18:30 298 5 gusting 12 30.0
2014-Jul-28 18:15 298 5 gusting 12 30.0
2014-Jul-28 18:00 298 5 gusting 12 30.0
2014-Jul-28 17:45 298 5 gusting 12 30.0
2014-Jul-28 17:30 298 5 gusting 12 30.0
2014-Jul-28 17:15 298 5 gusting 12 30.0
2014-Jul-28 17:00 316 4 gusting 9 30.0
2014-Jul-28 16:45 286 5 gusting 11 30.0
2014-Jul-28 16:30 320 5 gusting 12 31.1
2014-Jul-28 16:15 308 3 gusting 8 32.2
2014-Jul-28 16:00 303 4 gusting 10 32.2
2014-Jul-28 15:45 307 4 gusting 11 32.2
2014-Jul-28 15:30 292 3 gusting 11 32.8
2014-Jul-28 15:15 286 3 gusting 9 32.8
2014-Jul-28 15:00 323 4 gusting 13 33.3
2014-Jul-28 14:45 272 3 gusting 8 33.3
2014-Jul-28 14:30 288 3 gusting 11 32.8
2014-Jul-28 14:15 308 2 gusting 9 32.8
2014-Jul-28 14:00 283 3 gusting 8 33.3
2014-Jul-28 13:45 318 3 gusting 8 32.8
2014-Jul-28 13:30 312 1 gusting 6 33.3
2014-Jul-28 13:15 318 2 gusting 6 32.8
2014-Jul-28 13:00 289 2 gusting 7 32.2